createdAt,value
2019-04-04T00:00:48.284Z,9.31
2019-04-04T00:01:48.787Z,9.34
2019-04-04T00:02:49.797Z,9.39
2019-04-04T00:03:51.475Z,9.31
2019-04-04T00:04:48.643Z,9.30
2019-04-04T00:05:48.734Z,9.40
2019-04-04T00:06:48.819Z,9.24
2019-04-04T00:07:48.908Z,9.20
2019-04-04T00:08:49.003Z,9.24
2019-04-04T00:09:49.089Z,9.24
2019-04-04T00:10:49.192Z,9.04
2019-04-04T00:11:49.283Z,8.99
2019-04-04T00:12:49.428Z,9.13
2019-04-04T00:13:49.439Z,9.13
2019-04-04T00:14:49.547Z,9.09
2019-04-04T00:15:49.640Z,9.12
2019-04-04T00:16:49.727Z,9.13
2019-04-04T00:17:49.811Z,9.15
2019-04-04T00:18:49.895Z,9.06
2019-04-04T00:19:49.984Z,9.16
2019-04-04T00:20:50.074Z,9.25
2019-04-04T00:21:50.167Z,9.18
2019-04-04T00:22:50.253Z,9.20
2019-04-04T00:23:50.339Z,9.24
2019-04-04T00:24:50.425Z,9.21
2019-04-04T00:25:50.518Z,9.18
2019-04-04T00:26:50.611Z,9.24
2019-04-04T00:27:50.706Z,9.09
2019-04-04T00:28:50.790Z,9.09
2019-04-04T00:29:50.880Z,9.16
2019-04-04T00:30:50.972Z,9.20
2019-04-04T00:31:51.064Z,9.12
2019-04-04T00:32:52.881Z,9.10
2019-04-04T00:33:51.243Z,9.06
2019-04-04T00:34:51.332Z,9.18
2019-04-04T00:35:51.472Z,9.04
2019-04-04T00:36:51.547Z,9.10
2019-04-04T00:37:51.618Z,9.09
2019-04-04T00:38:51.708Z,8.94
2019-04-04T00:39:51.807Z,8.69
2019-04-04T00:40:51.882Z,8.39
2019-04-04T00:41:51.980Z,8.25
2019-04-04T00:42:52.057Z,8.35
2019-04-04T00:43:52.408Z,8.30
2019-04-04T00:44:53.865Z,8.35
2019-04-04T00:45:52.329Z,8.32
2019-04-04T00:46:52.418Z,8.44
2019-04-04T00:47:52.508Z,8.48
2019-04-04T00:48:52.590Z,8.57
2019-04-04T00:49:52.677Z,8.62
2019-04-04T00:50:52.770Z,8.57
2019-04-04T00:51:52.857Z,8.65
2019-04-04T00:52:52.947Z,8.62
2019-04-04T00:53:53.040Z,8.60
2019-04-04T00:54:53.125Z,8.72
2019-04-04T00:55:53.217Z,8.73
2019-04-04T00:56:53.305Z,8.78
2019-04-04T00:57:53.407Z,8.75
2019-04-04T00:58:53.514Z,8.73
2019-04-04T00:59:54.004Z,8.71
2019-04-04T01:00:54.905Z,8.68
2019-04-04T01:01:56.704Z,8.73
2019-04-04T01:02:53.876Z,8.68
2019-04-04T01:03:53.965Z,8.60
2019-04-04T01:04:54.057Z,8.42
2019-04-04T01:05:54.146Z,8.28
2019-04-04T01:06:54.236Z,8.30
2019-04-04T01:07:54.323Z,8.35
2019-04-04T01:08:54.406Z,8.37
2019-04-04T01:09:54.508Z,8.29
2019-04-04T01:10:54.592Z,8.22
2019-04-04T01:11:54.685Z,8.28
2019-04-04T01:12:54.772Z,8.32
2019-04-04T01:13:57.577Z,8.35
2019-04-04T01:14:54.951Z,8.39
2019-04-04T01:15:55.041Z,8.42
2019-04-04T01:16:55.133Z,8.44
2019-04-04T01:17:55.218Z,8.39
2019-04-04T01:18:55.309Z,8.37
2019-04-04T01:19:55.393Z,8.29
2019-04-04T01:20:55.488Z,8.12
2019-04-04T01:21:55.586Z,8.14
2019-04-04T01:22:56.090Z,8.11
2019-04-04T01:23:57.987Z,8.11
2019-04-04T01:24:55.851Z,8.21
2019-04-04T01:25:55.940Z,8.18
2019-04-04T01:26:56.031Z,8.22
2019-04-04T01:27:56.118Z,8.35
2019-04-04T01:28:56.206Z,8.32
2019-04-04T01:29:56.294Z,8.33
2019-04-04T01:30:56.382Z,8.33
2019-04-04T01:31:56.470Z,8.35
2019-04-04T01:32:56.559Z,8.45
2019-04-04T01:33:56.648Z,8.47
2019-04-04T01:34:56.737Z,8.39
2019-04-04T01:35:56.826Z,8.47
2019-04-04T01:36:57.151Z,8.50
2019-04-04T01:37:58.230Z,8.48
2019-04-04T01:38:58.138Z,8.57
2019-04-04T01:39:57.181Z,8.48
2019-04-04T01:40:57.274Z,8.57
2019-04-04T01:41:57.361Z,8.65
2019-04-04T01:42:57.511Z,8.51
2019-04-04T01:44:04.983Z,8.65
2019-04-04T01:44:57.619Z,8.58
2019-04-04T01:45:57.709Z,8.50
2019-04-04T01:46:57.801Z,8.47
2019-04-04T01:47:57.912Z,8.53
2019-04-04T01:48:57.999Z,8.50
2019-04-04T01:49:58.090Z,8.54
2019-04-04T01:50:58.179Z,8.53
2019-04-04T01:51:58.270Z,8.51
2019-04-04T01:52:59.386Z,8.44
2019-04-04T01:53:58.994Z,8.40
2019-04-04T01:54:58.542Z,8.35
2019-04-04T01:55:58.631Z,8.39
2019-04-04T01:56:58.716Z,8.37
2019-04-04T01:57:58.808Z,8.37
2019-04-04T01:58:58.899Z,8.42
2019-04-04T01:59:58.986Z,8.35
2019-04-04T02:00:59.077Z,8.33
2019-04-04T02:01:59.167Z,8.37
2019-04-04T02:02:59.260Z,8.33
2019-04-04T02:03:59.350Z,8.29
2019-04-04T02:04:59.447Z,8.35
2019-04-04T02:05:59.560Z,8.30
2019-04-04T02:06:59.762Z,8.14
2019-04-04T02:08:00.951Z,8.12
2019-04-04T02:09:02.515Z,8.21
2019-04-04T02:09:59.914Z,8.17
2019-04-04T02:11:00.001Z,8.18
2019-04-04T02:12:00.089Z,8.20
2019-04-04T02:13:00.181Z,8.15
2019-04-04T02:14:00.276Z,8.08
2019-04-04T02:15:00.358Z,8.15
2019-04-04T02:16:00.445Z,8.04
2019-04-04T02:17:00.531Z,8.17
2019-04-04T02:18:00.622Z,8.04
2019-04-04T02:19:00.709Z,8.07
2019-04-04T02:20:00.803Z,8.02
2019-04-04T02:21:00.888Z,8.00
2019-04-04T02:22:00.977Z,7.99
2019-04-04T02:23:01.489Z,8.03
2019-04-04T02:24:01.628Z,7.96
2019-04-04T02:25:03.041Z,7.93
2019-04-04T02:26:04.674Z,8.00
2019-04-04T02:27:01.405Z,7.89
2019-04-04T02:28:01.488Z,7.90
2019-04-04T02:29:01.594Z,7.89
2019-04-04T02:30:01.687Z,7.85
2019-04-04T02:31:01.774Z,7.75
2019-04-04T02:32:01.881Z,7.72
2019-04-04T02:33:01.969Z,7.78
2019-04-04T02:34:05.332Z,7.75
2019-04-04T02:35:02.157Z,7.75
2019-04-04T02:36:02.249Z,7.69
2019-04-04T02:37:02.338Z,7.63
2019-04-04T02:38:02.426Z,7.62
2019-04-04T02:39:02.513Z,7.59
2019-04-04T02:40:02.604Z,7.58
2019-04-04T02:41:02.694Z,7.66
2019-04-04T02:42:02.799Z,7.58
2019-04-04T02:43:02.870Z,7.60
2019-04-04T02:44:02.957Z,7.66
2019-04-04T02:45:05.511Z,7.56
2019-04-04T02:46:03.140Z,7.58
2019-04-04T02:47:03.234Z,7.55
2019-04-04T02:48:03.314Z,7.50
2019-04-04T02:49:03.401Z,7.45
2019-04-04T02:50:03.516Z,7.34
2019-04-04T02:51:06.841Z,7.27
2019-04-04T02:52:03.721Z,7.26
2019-04-04T02:53:03.813Z,7.27
2019-04-04T02:54:03.894Z,7.29
2019-04-04T02:55:03.985Z,7.16
2019-04-04T02:56:04.076Z,7.13
2019-04-04T02:57:08.032Z,7.15
2019-04-04T02:58:04.250Z,7.15
2019-04-04T02:59:04.337Z,7.27
2019-04-04T03:00:04.427Z,7.20
2019-04-04T03:01:04.518Z,7.24
2019-04-04T03:02:05.878Z,7.16
2019-04-04T03:03:08.032Z,7.19
2019-04-04T03:04:04.781Z,7.09
2019-04-04T03:05:04.870Z,7.19
2019-04-04T03:06:04.962Z,7.17
2019-04-04T03:07:05.049Z,7.23
2019-04-04T03:08:05.153Z,7.24
2019-04-04T03:09:09.048Z,7.17
2019-04-04T03:10:05.306Z,7.16
2019-04-04T03:11:05.439Z,7.17
2019-04-04T03:12:05.487Z,6.97
2019-04-04T03:13:05.575Z,6.94
2019-04-04T03:14:05.656Z,6.90
2019-04-04T03:15:06.288Z,6.90
2019-04-04T03:16:05.843Z,6.97
2019-04-04T03:17:05.933Z,7.08
2019-04-04T03:18:06.012Z,7.13
2019-04-04T03:19:09.987Z,7.15
2019-04-04T03:20:06.649Z,7.05
2019-04-04T03:21:06.236Z,7.09
2019-04-04T03:22:06.341Z,7.15
2019-04-04T03:23:06.419Z,7.15
2019-04-04T03:24:07.351Z,7.19
2019-04-04T03:25:06.607Z,7.31
2019-04-04T03:26:06.681Z,7.09
2019-04-04T03:27:06.781Z,7.20
2019-04-04T03:28:06.854Z,7.09
2019-04-04T03:29:10.195Z,6.83
2019-04-04T03:30:13.224Z,6.69
2019-04-04T03:31:07.128Z,6.50
2019-04-04T03:32:13.200Z,6.53
2019-04-04T03:33:07.309Z,6.48
2019-04-04T03:34:11.268Z,6.56
2019-04-04T03:35:07.466Z,6.66
2019-04-04T03:36:07.562Z,6.68
2019-04-04T03:37:11.854Z,6.79
2019-04-04T03:38:07.750Z,6.84
2019-04-04T03:39:07.824Z,6.83
2019-04-04T03:40:07.919Z,6.83
2019-04-04T03:41:08.006Z,6.83
2019-04-04T03:42:08.341Z,6.77
2019-04-04T03:43:08.180Z,6.84
2019-04-04T03:44:08.265Z,6.76
2019-04-04T03:45:08.354Z,6.73
2019-04-04T03:46:08.443Z,6.72
2019-04-04T03:47:10.465Z,6.61
2019-04-04T03:48:08.621Z,6.50
2019-04-04T03:49:08.719Z,6.40
2019-04-04T03:50:08.798Z,6.30
2019-04-04T03:51:08.889Z,6.11
2019-04-04T03:52:11.210Z,6.25
2019-04-04T03:53:09.066Z,6.29
2019-04-04T03:54:09.155Z,6.30
2019-04-04T03:55:09.249Z,6.33
2019-04-04T03:56:09.353Z,6.22
2019-04-04T03:57:12.314Z,6.18
2019-04-04T03:58:09.505Z,6.13
2019-04-04T03:59:09.588Z,6.13
2019-04-04T04:00:09.684Z,6.21
2019-04-04T04:01:13.220Z,6.11
2019-04-04T04:02:09.843Z,6.28
2019-04-04T04:03:09.939Z,6.14
2019-04-04T04:04:10.017Z,6.11
2019-04-04T04:05:10.111Z,6.25
2019-04-04T04:06:10.203Z,6.25
2019-04-04T04:07:13.940Z,6.32
2019-04-04T04:08:10.363Z,6.43
2019-04-04T04:09:10.449Z,6.41
2019-04-04T04:10:10.533Z,6.58
2019-04-04T04:11:10.625Z,6.59
2019-04-04T04:12:11.418Z,6.68
2019-04-04T04:13:10.800Z,6.69
2019-04-04T04:14:10.893Z,6.83
2019-04-04T04:15:10.972Z,6.84
2019-04-04T04:16:11.059Z,6.84
2019-04-04T04:17:11.635Z,6.80
2019-04-04T04:18:11.239Z,6.76
2019-04-04T04:19:11.359Z,6.95
2019-04-04T04:20:11.458Z,6.97
2019-04-04T04:21:11.574Z,6.99
2019-04-04T04:22:13.051Z,7.12
2019-04-04T04:23:11.747Z,7.13
2019-04-04T04:24:11.834Z,7.16
2019-04-04T04:25:11.928Z,6.95
2019-04-04T04:26:12.010Z,6.91
2019-04-04T04:27:15.437Z,6.83
2019-04-04T04:28:12.183Z,6.73
2019-04-04T04:29:12.273Z,6.71
2019-04-04T04:30:12.367Z,6.65
2019-04-04T04:31:15.329Z,6.65
2019-04-04T04:32:12.536Z,6.68
2019-04-04T04:33:12.625Z,6.63
2019-04-04T04:34:12.715Z,6.61
2019-04-04T04:35:12.805Z,6.53
2019-04-04T04:36:15.204Z,6.56
2019-04-04T04:37:12.982Z,6.62
2019-04-04T04:38:13.065Z,6.63
2019-04-04T04:39:13.153Z,6.69
2019-04-04T04:40:15.094Z,6.63
2019-04-04T04:41:13.326Z,6.71
2019-04-04T04:42:13.443Z,6.76
2019-04-04T04:43:15.477Z,6.76
2019-04-04T04:44:13.553Z,6.86
2019-04-04T04:45:13.632Z,6.79
2019-04-04T04:46:16.899Z,6.63
2019-04-04T04:47:13.809Z,6.56
2019-04-04T04:48:13.906Z,6.33
2019-04-04T04:49:13.990Z,6.26
2019-04-04T04:50:14.081Z,6.13
2019-04-04T04:51:14.184Z,6.18
2019-04-04T04:52:15.131Z,6.21
2019-04-04T04:53:18.314Z,6.35
2019-04-04T04:54:14.488Z,6.41
2019-04-04T04:55:14.571Z,6.58
2019-04-04T04:56:17.592Z,6.46
2019-04-04T04:57:28.759Z,6.53
2019-04-04T04:58:14.837Z,6.53
2019-04-04T04:59:14.938Z,6.58
2019-04-04T05:00:16.124Z,6.71
2019-04-04T05:01:18.325Z,6.76
2019-04-04T05:02:17.205Z,6.84
2019-04-04T05:03:15.547Z,6.83
2019-04-04T05:04:15.273Z,6.83
2019-04-04T05:05:15.359Z,6.99
2019-04-04T05:06:15.448Z,6.84
2019-04-04T05:07:15.543Z,6.76
2019-04-04T05:08:16.585Z,6.63
2019-04-04T05:09:15.822Z,6.54
2019-04-04T05:10:15.780Z,6.53
2019-04-04T05:11:18.822Z,6.53
2019-04-04T05:12:15.895Z,6.65
2019-04-04T05:13:15.986Z,6.71
2019-04-04T05:14:16.074Z,6.83
2019-04-04T05:15:16.165Z,6.76
2019-04-04T05:16:16.248Z,7.04
2019-04-04T05:17:16.343Z,6.91
2019-04-04T05:18:17.079Z,7.02
2019-04-04T05:19:17.076Z,7.04
2019-04-04T05:20:16.603Z,7.20
2019-04-04T05:21:24.745Z,7.19
2019-04-04T05:22:16.772Z,7.23
2019-04-04T05:23:16.905Z,7.38
2019-04-04T05:24:18.017Z,7.41
2019-04-04T05:25:17.044Z,7.38
2019-04-04T05:26:17.136Z,7.44
2019-04-04T05:27:17.243Z,7.40
2019-04-04T05:28:17.324Z,7.47
2019-04-04T05:29:17.428Z,7.53
2019-04-04T05:30:20.243Z,7.62
2019-04-04T05:31:18.275Z,7.62
2019-04-04T05:32:20.901Z,7.66
2019-04-04T05:33:17.777Z,7.67
2019-04-04T05:34:17.863Z,7.55
2019-04-04T05:35:17.939Z,7.66
2019-04-04T05:36:18.028Z,7.58
2019-04-04T05:37:18.120Z,7.32
2019-04-04T05:38:18.211Z,7.19
2019-04-04T05:39:18.783Z,7.15
2019-04-04T05:40:18.460Z,7.15
2019-04-04T05:41:18.464Z,7.15
2019-04-04T05:42:18.573Z,7.07
2019-04-04T05:43:19.390Z,7.01
2019-04-04T05:44:18.751Z,6.89
2019-04-04T05:45:18.818Z,6.87
2019-04-04T05:46:19.628Z,6.98
2019-04-04T05:47:18.995Z,7.08
2019-04-04T05:48:19.085Z,7.09
2019-04-04T05:49:19.173Z,7.17
2019-04-04T05:50:19.262Z,7.16
2019-04-04T05:51:19.350Z,7.08
2019-04-04T05:52:19.785Z,6.94
2019-04-04T05:53:21.414Z,6.97
2019-04-04T05:54:19.587Z,6.95
2019-04-04T05:55:19.671Z,6.99
2019-04-04T05:56:19.765Z,6.81
2019-04-04T05:57:20.144Z,6.76
2019-04-04T05:58:22.597Z,6.91
2019-04-04T05:59:20.022Z,6.95
2019-04-04T06:00:20.110Z,6.77
2019-04-04T06:01:20.199Z,6.81
2019-04-04T06:02:20.286Z,6.86
2019-04-04T06:03:20.390Z,7.04
2019-04-04T06:04:20.491Z,7.05
2019-04-04T06:05:20.564Z,7.12
2019-04-04T06:06:20.672Z,7.09
2019-04-04T06:07:20.783Z,7.20
2019-04-04T06:08:20.811Z,7.22
2019-04-04T06:09:20.899Z,7.31
2019-04-04T06:10:21.000Z,7.22
2019-04-04T06:11:21.753Z,7.20
2019-04-04T06:12:21.213Z,7.24
2019-04-04T06:13:22.317Z,7.23
2019-04-04T06:14:21.342Z,7.40
2019-04-04T06:15:21.431Z,7.38
2019-04-04T06:16:21.525Z,7.47
2019-04-04T06:17:21.609Z,7.42
2019-04-04T06:18:21.697Z,7.52
2019-04-04T06:19:21.788Z,7.60
2019-04-04T06:20:21.896Z,7.72
2019-04-04T06:21:21.983Z,7.72
2019-04-04T06:22:22.086Z,7.78
2019-04-04T06:23:23.101Z,7.81
2019-04-04T06:24:22.259Z,7.90
2019-04-04T06:25:22.346Z,7.93
2019-04-04T06:26:22.435Z,7.97
2019-04-04T06:27:22.553Z,7.99
2019-04-04T06:28:22.740Z,8.00
2019-04-04T06:29:22.728Z,8.07
2019-04-04T06:30:22.819Z,8.12
2019-04-04T06:31:26.200Z,8.12
2019-04-04T06:32:22.977Z,8.12
2019-04-04T06:33:23.121Z,8.18
2019-04-04T06:34:24.116Z,8.10
2019-04-04T06:35:23.279Z,7.96
2019-04-04T06:36:23.349Z,7.99
2019-04-04T06:37:23.440Z,7.93
2019-04-04T06:38:24.174Z,7.69
2019-04-04T06:39:25.257Z,7.62
2019-04-04T06:40:23.700Z,7.67
2019-04-04T06:41:23.788Z,7.40
2019-04-04T06:42:23.880Z,7.34
2019-04-04T06:43:23.968Z,7.22
2019-04-04T06:44:24.057Z,7.31
2019-04-04T06:45:24.145Z,7.34
2019-04-04T06:46:24.236Z,7.44
2019-04-04T06:47:25.614Z,7.52
2019-04-04T06:48:24.420Z,7.59
2019-04-04T06:49:24.565Z,7.60
2019-04-04T06:50:24.654Z,7.74
2019-04-04T06:51:24.774Z,7.78
2019-04-04T06:52:24.750Z,7.81
2019-04-04T06:53:24.837Z,7.90
2019-04-04T06:54:25.659Z,7.93
2019-04-04T06:55:28.356Z,8.00
2019-04-04T06:56:25.118Z,8.00
2019-04-04T06:57:25.204Z,8.03
2019-04-04T06:58:25.294Z,8.10
2019-04-04T06:59:25.644Z,8.18
2019-04-04T07:00:25.481Z,8.12
2019-04-04T07:01:25.565Z,8.10
2019-04-04T07:02:25.652Z,8.25
2019-04-04T07:03:27.862Z,8.07
2019-04-04T07:04:25.830Z,8.12
2019-04-04T07:05:25.921Z,8.14
2019-04-04T07:06:26.013Z,8.28
2019-04-04T07:07:26.102Z,8.18
2019-04-04T07:08:26.189Z,8.22
2019-04-04T07:09:26.280Z,8.26
2019-04-04T07:10:26.370Z,8.28
2019-04-04T07:11:26.455Z,8.33
2019-04-04T07:12:28.450Z,8.33
2019-04-04T07:13:28.164Z,8.35
2019-04-04T07:14:30.036Z,8.33
2019-04-04T07:15:26.829Z,8.37
2019-04-04T07:16:26.908Z,8.33
2019-04-04T07:17:26.996Z,8.36
2019-04-04T07:18:27.089Z,8.33
2019-04-04T07:19:27.180Z,8.35
2019-04-04T07:20:28.596Z,8.45
2019-04-04T07:21:27.370Z,8.47
2019-04-04T07:22:27.449Z,8.47
2019-04-04T07:23:28.478Z,8.50
2019-04-04T07:24:29.041Z,8.51
2019-04-04T07:25:27.714Z,8.55
2019-04-04T07:26:27.804Z,8.63
2019-04-04T07:27:27.892Z,8.60
2019-04-04T07:28:30.714Z,8.69
2019-04-04T07:29:28.072Z,8.72
2019-04-04T07:30:28.407Z,8.79
2019-04-04T07:31:28.247Z,8.71
2019-04-04T07:32:28.333Z,8.72
2019-04-04T07:33:28.426Z,8.83
2019-04-04T07:34:28.582Z,8.84
2019-04-04T07:35:28.579Z,8.83
2019-04-04T07:36:28.696Z,8.91
2019-04-04T07:37:28.759Z,8.94
2019-04-04T07:38:29.432Z,9.01
2019-04-04T07:39:31.980Z,9.06
2019-04-04T07:40:29.033Z,8.99
2019-04-04T07:41:29.126Z,9.21
2019-04-04T07:42:29.210Z,9.13
2019-04-04T07:43:29.305Z,9.25
2019-04-04T07:44:29.392Z,9.38
2019-04-04T07:45:29.507Z,9.48
2019-04-04T07:46:29.571Z,9.46
2019-04-04T07:47:29.661Z,9.49
2019-04-04T07:48:29.752Z,9.45
2019-04-04T07:49:29.856Z,9.50
2019-04-04T07:50:29.947Z,9.46
2019-04-04T07:51:30.819Z,9.52
2019-04-04T07:52:32.785Z,9.53
2019-04-04T07:53:30.218Z,9.57
2019-04-04T07:54:31.886Z,9.56
2019-04-04T07:55:30.398Z,9.57
2019-04-04T07:56:30.485Z,9.56
2019-04-04T07:57:30.694Z,9.48
2019-04-04T07:58:30.661Z,9.46
2019-04-04T07:59:31.226Z,9.48
2019-04-04T08:00:30.836Z,9.46
2019-04-04T08:01:30.926Z,9.50
2019-04-04T08:02:31.010Z,9.52
2019-04-04T08:03:31.097Z,9.50
2019-04-04T08:04:31.188Z,9.56
2019-04-04T08:05:31.276Z,9.49
2019-04-04T08:06:31.367Z,9.50
2019-04-04T08:07:31.457Z,9.61
2019-04-04T08:08:31.540Z,9.63
2019-04-04T08:09:31.639Z,9.60
2019-04-04T08:10:31.730Z,9.60
2019-04-04T08:11:31.820Z,9.73
2019-04-04T08:12:31.910Z,9.63
2019-04-04T08:13:32.001Z,9.71
2019-04-04T08:14:32.102Z,9.66
2019-04-04T08:15:32.196Z,9.73
2019-04-04T08:16:32.285Z,9.66
2019-04-04T08:17:32.385Z,9.79
2019-04-04T08:18:32.468Z,9.67
2019-04-04T08:19:32.573Z,9.82
2019-04-04T08:20:32.704Z,9.85
2019-04-04T08:21:32.790Z,9.83
2019-04-04T08:22:32.871Z,9.85
2019-04-04T08:23:32.962Z,9.83
2019-04-04T08:24:33.042Z,9.83
2019-04-04T08:25:33.129Z,9.88
2019-04-04T08:26:33.219Z,9.83
2019-04-04T08:27:33.335Z,9.88
2019-04-04T08:28:33.420Z,9.82
2019-04-04T08:29:33.511Z,9.81
2019-04-04T08:30:33.599Z,9.68
2019-04-04T08:31:33.689Z,9.76
2019-04-04T08:32:33.776Z,9.68
2019-04-04T08:33:33.868Z,9.76
2019-04-04T08:34:36.271Z,9.58
2019-04-04T08:35:34.046Z,9.49
2019-04-04T08:36:35.829Z,9.52
2019-04-04T08:37:34.220Z,9.56
2019-04-04T08:38:34.307Z,9.56
2019-04-04T08:39:34.400Z,9.61
2019-04-04T08:40:34.489Z,9.53
2019-04-04T08:41:34.861Z,9.64
2019-04-04T08:42:34.752Z,9.38
2019-04-04T08:43:34.865Z,9.46
2019-04-04T08:44:34.929Z,9.05
2019-04-04T08:45:35.015Z,9.09
2019-04-04T08:46:35.105Z,9.21
2019-04-04T08:47:35.203Z,9.21
2019-04-04T08:48:35.279Z,9.21
2019-04-04T08:49:35.367Z,9.20
2019-04-04T08:50:35.459Z,9.24
2019-04-04T08:51:35.551Z,9.40
2019-04-04T08:52:35.643Z,9.49
2019-04-04T08:53:40.328Z,9.58
2019-04-04T08:54:35.824Z,9.60
2019-04-04T08:55:35.913Z,9.71
2019-04-04T08:56:36.006Z,9.78
2019-04-04T08:57:36.098Z,9.88
2019-04-04T08:58:36.188Z,9.86
2019-04-04T08:59:36.288Z,10.00
2019-04-04T09:00:36.453Z,9.94
2019-04-04T09:01:36.473Z,9.83
2019-04-04T09:02:36.647Z,9.71
2019-04-04T09:03:36.759Z,9.64
2019-04-04T09:04:36.772Z,9.63
2019-04-04T09:05:36.856Z,9.68
2019-04-04T09:06:36.939Z,9.81
2019-04-04T09:07:37.033Z,9.81
2019-04-04T09:08:37.119Z,9.85
2019-04-04T09:09:37.311Z,9.86
2019-04-04T09:10:37.304Z,9.93
2019-04-04T09:11:37.394Z,9.89
2019-04-04T09:12:37.483Z,9.86
2019-04-04T09:13:37.573Z,9.89
2019-04-04T09:14:37.663Z,10.03
2019-04-04T09:15:37.753Z,10.12
2019-04-04T09:16:37.844Z,10.10
2019-04-04T09:17:37.932Z,10.18
2019-04-04T09:18:38.028Z,9.86
2019-04-04T09:19:38.116Z,9.20
2019-04-04T09:20:38.207Z,9.20
2019-04-04T09:21:38.302Z,9.21
2019-04-04T09:22:40.771Z,9.02
2019-04-04T09:23:38.480Z,9.24
2019-04-04T09:24:38.576Z,9.34
2019-04-04T09:25:40.844Z,9.35
2019-04-04T09:26:38.773Z,9.39
2019-04-04T09:27:38.848Z,9.58
2019-04-04T09:28:38.937Z,9.56
2019-04-04T09:29:39.030Z,9.58
2019-04-04T09:30:39.121Z,9.57
2019-04-04T09:31:39.259Z,9.04
2019-04-04T09:32:39.309Z,8.72
2019-04-04T09:33:39.397Z,8.71
2019-04-04T09:34:39.485Z,8.96
2019-04-04T09:35:39.575Z,8.94
2019-04-04T09:36:39.665Z,9.04
2019-04-04T09:37:39.760Z,9.09
2019-04-04T09:38:39.865Z,9.20
2019-04-04T09:39:39.970Z,9.13
2019-04-04T09:40:40.058Z,9.21
2019-04-04T09:41:40.146Z,9.25
2019-04-04T09:42:40.242Z,8.87
2019-04-04T09:43:40.328Z,8.91
2019-04-04T09:44:40.413Z,8.97
2019-04-04T09:45:40.606Z,9.02
2019-04-04T09:46:40.725Z,9.09
2019-04-04T09:47:40.705Z,9.09
2019-04-04T09:48:40.770Z,9.05
2019-04-04T09:49:40.852Z,9.16
2019-04-04T09:50:40.931Z,9.38
2019-04-04T09:51:41.039Z,9.31
2019-04-04T09:52:41.131Z,9.23
2019-04-04T09:53:52.932Z,9.23
2019-04-04T09:54:41.307Z,8.91
2019-04-04T09:55:41.397Z,8.63
2019-04-04T09:56:41.499Z,8.76
2019-04-04T09:57:41.589Z,8.73
2019-04-04T09:58:41.679Z,8.76
2019-04-04T09:59:41.772Z,8.91
2019-04-04T10:00:41.861Z,9.04
2019-04-04T10:01:41.953Z,8.94
2019-04-04T10:02:42.098Z,9.13
2019-04-04T10:03:42.130Z,9.20
2019-04-04T10:04:42.218Z,9.31
2019-04-04T10:05:42.307Z,9.09
2019-04-04T10:06:42.395Z,9.09
2019-04-04T10:07:42.492Z,9.02
2019-04-04T10:08:42.565Z,9.15
2019-04-04T10:09:42.640Z,9.09
2019-04-04T10:10:42.846Z,9.24
2019-04-04T10:11:42.873Z,9.38
2019-04-04T10:12:42.959Z,9.35
2019-04-04T10:13:43.053Z,9.10
2019-04-04T10:14:43.138Z,8.83
2019-04-04T10:15:43.232Z,8.76
2019-04-04T10:16:43.324Z,8.87
2019-04-04T10:17:43.414Z,8.81
2019-04-04T10:18:43.508Z,8.72
2019-04-04T10:19:43.593Z,8.71
2019-04-04T10:20:43.681Z,8.81
2019-04-04T10:21:43.774Z,8.90
2019-04-04T10:22:43.915Z,8.91
2019-04-04T10:23:43.996Z,8.91
2019-04-04T10:24:44.084Z,8.91
2019-04-04T10:25:44.183Z,8.94
2019-04-04T10:26:44.266Z,8.93
2019-04-04T10:27:44.357Z,9.12
2019-04-04T10:28:44.458Z,9.06
2019-04-04T10:29:44.551Z,9.04
2019-04-04T10:30:44.842Z,9.13
2019-04-04T10:31:44.834Z,8.99
2019-04-04T10:32:44.865Z,9.05
2019-04-04T10:33:44.976Z,9.15
2019-04-04T10:34:45.043Z,9.24
2019-04-04T10:35:45.138Z,9.20
2019-04-04T10:36:45.225Z,9.21
2019-04-04T10:37:45.310Z,9.28
2019-04-04T10:38:45.402Z,9.35
2019-04-04T10:39:45.486Z,9.20
2019-04-04T10:40:46.264Z,9.02
2019-04-04T10:41:45.712Z,9.05
2019-04-04T10:42:45.804Z,9.18
2019-04-04T10:43:45.891Z,9.25
2019-04-04T10:44:45.980Z,9.13
2019-04-04T10:45:46.069Z,9.13
2019-04-04T10:46:46.162Z,8.99
2019-04-04T10:47:46.252Z,9.12
2019-04-04T10:48:46.338Z,8.99
2019-04-04T10:49:46.438Z,9.05
2019-04-04T10:50:46.546Z,9.23
2019-04-04T10:51:46.738Z,9.24
2019-04-04T10:52:46.809Z,9.02
2019-04-04T10:53:46.817Z,9.13
2019-04-04T10:54:46.945Z,9.24
2019-04-04T10:55:46.997Z,9.34
2019-04-04T10:56:47.085Z,9.46
2019-04-04T10:57:47.174Z,9.60
2019-04-04T10:58:47.263Z,9.70
2019-04-04T10:59:47.356Z,9.85
2019-04-04T11:00:47.466Z,9.89
2019-04-04T11:01:47.539Z,9.91
2019-04-04T11:02:47.628Z,10.04
2019-04-04T11:03:47.716Z,9.88
2019-04-04T11:04:47.807Z,9.89
2019-04-04T11:05:47.902Z,9.99
2019-04-04T11:06:47.993Z,10.14
2019-04-04T11:07:48.080Z,10.24
2019-04-04T11:08:48.286Z,10.22
2019-04-04T11:09:48.266Z,10.28
2019-04-04T11:10:48.363Z,10.37
2019-04-04T11:11:48.445Z,10.22
2019-04-04T11:12:48.534Z,10.21
2019-04-04T11:13:48.632Z,10.28
2019-04-04T11:14:48.705Z,10.30
2019-04-04T11:15:48.803Z,10.22
2019-04-04T11:16:48.937Z,10.18
2019-04-04T11:17:48.984Z,10.01
2019-04-04T11:18:50.023Z,9.94
2019-04-04T11:19:49.109Z,9.91
2019-04-04T11:20:49.208Z,10.00
2019-04-04T11:21:49.298Z,10.04
2019-04-04T11:22:49.398Z,10.00
2019-04-04T11:23:49.490Z,10.14
2019-04-04T11:24:49.578Z,10.21
2019-04-04T11:25:49.698Z,10.40
2019-04-04T11:26:49.769Z,10.47
2019-04-04T11:27:49.859Z,10.40
2019-04-04T11:28:49.950Z,10.58
2019-04-04T11:29:50.047Z,10.60
2019-04-04T11:30:50.133Z,10.66
2019-04-04T11:31:50.221Z,10.55
2019-04-04T11:32:50.395Z,10.21
2019-04-04T11:33:50.406Z,9.97
2019-04-04T11:34:53.402Z,9.94
2019-04-04T11:35:50.616Z,9.96
2019-04-04T11:36:50.709Z,10.04
2019-04-04T11:37:50.820Z,10.00
2019-04-04T11:38:50.911Z,10.07
2019-04-04T11:39:55.042Z,10.26
2019-04-04T11:40:51.088Z,10.40
2019-04-04T11:41:51.179Z,10.55
2019-04-04T11:42:51.270Z,10.60
2019-04-04T11:43:51.364Z,10.77
2019-04-04T11:44:51.460Z,10.77
2019-04-04T11:45:51.538Z,10.84
2019-04-04T11:46:51.640Z,10.80
2019-04-04T11:47:51.731Z,10.83
2019-04-04T11:48:51.820Z,10.91
2019-04-04T11:49:51.919Z,11.02
2019-04-04T11:50:51.998Z,11.01
2019-04-04T11:51:52.095Z,10.95
2019-04-04T11:52:52.190Z,10.94
2019-04-04T11:53:52.281Z,10.99
2019-04-04T11:54:52.372Z,10.98
2019-04-04T11:55:52.457Z,11.06
2019-04-04T11:56:52.550Z,11.01
2019-04-04T11:57:52.678Z,11.10
2019-04-04T11:58:52.724Z,11.10
2019-04-04T11:59:52.809Z,11.21
2019-04-04T12:00:52.898Z,10.96
2019-04-04T12:01:52.995Z,10.74
2019-04-04T12:02:53.087Z,10.77
2019-04-04T12:03:53.181Z,10.68
2019-04-04T12:04:53.273Z,10.53
2019-04-04T12:05:53.362Z,10.37
2019-04-04T12:06:53.481Z,10.26
2019-04-04T12:07:53.560Z,10.03
2019-04-04T12:08:53.649Z,9.91
2019-04-04T12:10:06.444Z,10.17
2019-04-04T12:10:53.832Z,10.33
2019-04-04T12:11:53.924Z,10.44
2019-04-04T12:12:54.023Z,10.40
2019-04-04T12:13:54.114Z,10.51
2019-04-04T12:14:54.208Z,10.60
2019-04-04T12:15:54.295Z,10.51
2019-04-04T12:16:54.387Z,10.59
2019-04-04T12:17:54.481Z,10.60
2019-04-04T12:18:54.582Z,10.28
2019-04-04T12:19:54.673Z,10.17
2019-04-04T12:20:54.760Z,10.26
2019-04-04T12:21:54.855Z,10.34
2019-04-04T12:22:54.956Z,10.52
2019-04-04T12:23:55.033Z,10.60
2019-04-04T12:24:55.123Z,10.68
2019-04-04T12:25:55.215Z,10.73
2019-04-04T12:26:55.310Z,10.83
2019-04-04T12:27:55.398Z,10.98
2019-04-04T12:28:55.490Z,11.01
2019-04-04T12:29:55.586Z,11.02
2019-04-04T12:30:55.677Z,11.06
2019-04-04T12:31:55.772Z,11.06
2019-04-04T12:32:55.863Z,10.89
2019-04-04T12:33:55.953Z,10.68
2019-04-04T12:34:56.088Z,10.62
2019-04-04T12:35:56.131Z,10.58
2019-04-04T12:36:56.218Z,10.25
2019-04-04T12:37:56.313Z,10.34
2019-04-04T12:38:56.397Z,10.42
2019-04-04T12:39:56.530Z,10.40
2019-04-04T12:40:56.628Z,10.39
2019-04-04T12:41:56.784Z,10.34
2019-04-04T12:42:56.738Z,10.51
2019-04-04T12:43:56.828Z,10.58
2019-04-04T12:44:56.911Z,10.74
2019-04-04T12:45:57.008Z,10.78
2019-04-04T12:46:57.092Z,10.84
2019-04-04T12:47:57.184Z,10.94
2019-04-04T12:48:57.275Z,10.92
2019-04-04T12:49:57.368Z,10.88
2019-04-04T12:50:57.451Z,10.80
2019-04-04T12:51:57.540Z,10.98
2019-04-04T12:52:57.638Z,10.68
2019-04-04T12:53:57.728Z,10.70
2019-04-04T12:54:57.820Z,10.89
2019-04-04T12:55:57.917Z,10.68
2019-04-04T12:56:58.015Z,10.83
2019-04-04T12:57:58.104Z,10.96
2019-04-04T12:58:58.198Z,11.10
2019-04-04T12:59:58.272Z,11.03
2019-04-04T13:00:58.365Z,11.21
2019-04-04T13:01:58.459Z,11.17
2019-04-04T13:02:58.557Z,11.38
2019-04-04T13:03:58.638Z,11.36
2019-04-04T13:04:58.752Z,11.46
2019-04-04T13:05:58.862Z,11.46
2019-04-04T13:06:58.953Z,11.62
2019-04-04T13:07:59.048Z,11.67
2019-04-04T13:08:59.141Z,11.65
2019-04-04T13:10:10.873Z,11.62
2019-04-04T13:10:59.328Z,11.44
2019-04-04T13:11:59.416Z,11.35
2019-04-04T13:12:59.506Z,11.20
2019-04-04T13:13:59.599Z,11.17
2019-04-04T13:14:59.692Z,10.91
2019-04-04T13:15:59.785Z,10.92